Time,TemperatureF,DewpointF,PressureIn,WindDirection,WindDirectionDegrees,WindSpeedMPH,WindSpeedGustMPH,Humidity,HourlyPrecipIn,Conditions,Clouds,dailyrainin,SoftwareType,DateUTC
2013-06-03 00:06:00,65.4,63.6,29.80,SSW,207,7.5,7.5,94,0.01,,BKN120,0.83,VWS V14.01,2013-06-03 04:06:00,
2013-06-03 00:11:00,65.4,63.6,29.80,SSW,201,6.0,7.5,94,0.01,,BKN120,0.83,VWS V14.01,2013-06-03 04:11:00,
2013-06-03 00:16:00,65.3,63.5,29.80,SSW,201,3.0,7.5,94,0.01,,BKN120,0.83,VWS V14.01,2013-06-03 04:16:00,
2013-06-03 00:21:00,65.3,63.5,29.80,SSW,201,3.0,7.5,94,0.01,,BKN120,0.83,VWS V14.01,2013-06-03 04:21:00,
2013-06-03 00:26:00,65.3,63.5,29.80,SSW,199,3.0,7.5,94,0.01,,BKN120,0.83,VWS V14.01,2013-06-03 04:26:00,
2013-06-03 00:31:00,65.3,63.5,29.80,SSW,199,0.0,7.5,94,0.00,,BKN120,0.83,VWS V14.01,2013-06-03 04:31:00,
2013-06-03 00:36:00,65.1,63.3,29.80,SSW,199,0.0,4.5,94,0.00,,BKN120,0.83,VWS V14.01,2013-06-03 04:36:00,
2013-06-03 00:42:00,65.0,63.2,29.80,SSW,199,0.0,4.5,94,0.00,,BKN120,0.83,VWS V14.01,2013-06-03 04:42:00,
2013-06-03 00:47:00,65.0,63.2,29.80,SSW,199,0.0,3.0,94,0.00,,BKN120,0.83,VWS V14.01,2013-06-03 04:47:00,
2013-06-03 00:52:00,64.8,63.0,29.80,SSW,199,0.0,0.0,94,0.00,,BKN120,0.83,VWS V14.01,2013-06-03 04:52:00,
2013-06-03 00:57:00,64.8,63.0,29.80,SSW,199,0.0,0.0,94,0.00,,BKN120,0.83,VWS V14.01,2013-06-03 04:57:00,
2013-06-03 01:02:00,64.8,63.0,29.81,SSW,199,0.0,0.0,94,0.00,,BKN120,0.00,VWS V14.01,2013-06-03 05:02:00,
2013-06-03 01:07:00,64.8,63.0,29.81,SSW,199,0.0,0.0,94,0.00,,OVC085,0.00,VWS V14.01,2013-06-03 05:07:00,
2013-06-03 01:12:00,64.8,63.0,29.81,SSW,199,0.0,0.0,94,0.00,,OVC085,0.00,VWS V14.01,2013-06-03 05:12:00,
2013-06-03 01:17:00,64.8,63.0,29.80,SSW,199,0.0,0.0,94,0.00,,OVC085,0.00,VWS V14.01,2013-06-03 05:17:00,
2013-06-03 01:22:00,64.8,63.0,29.80,SSW,199,0.0,0.0,94,0.00,,OVC085,0.00,VWS V14.01,2013-06-03 05:22:00,
2013-06-03 01:27:00,64.8,63.0,29.80,SSW,199,0.0,0.0,94,0.00,,OVC085,0.00,VWS V14.01,2013-06-03 05:27:00,
2013-06-03 01:32:00,64.8,63.0,29.80,SSW,199,0.0,0.0,94,0.00,,OVC085,0.00,VWS V14.01,2013-06-03 05:32:00,
2013-06-03 01:37:00,64.8,63.0,29.80,SSW,199,0.0,0.0,94,0.00,,OVC085,0.00,VWS V14.01,2013-06-03 05:37:00,
2013-06-03 01:42:00,64.8,63.0,29.80,SSW,199,0.0,0.0,94,0.00,,OVC085,0.00,VWS V14.01,2013-06-03 05:42:00,
2013-06-03 01:47:00,64.8,63.0,29.80,SSW,199,0.0,0.0,94,0.00,,OVC085,0.00,VWS V14.01,2013-06-03 05:47:00,
2013-06-03 01:52:00,64.8,63.0,29.80,SSW,199,0.0,0.0,94,0.00,,OVC085,0.00,VWS V14.01,2013-06-03 05:52:00,
2013-06-03 01:57:00,64.8,63.0,29.80,SSW,199,0.0,0.0,94,0.00,,OVC085,0.00,VWS V14.01,2013-06-03 05:57:00,
2013-06-03 02:02:00,64.8,63.0,29.80,SSW,199,0.0,0.0,94,0.00,,OVC085,0.00,VWS V14.01,2013-06-03 06:02:00,
2013-06-03 02:07:00,64.8,63.0,29.80,SSW,199,0.0,0.0,94,0.00,,OVC090,0.00,VWS V14.01,2013-06-03 06:07:00,
2013-06-03 02:12:00,64.8,63.0,29.80,SSW,199,0.0,0.0,94,0.00,,OVC090,0.00,VWS V14.01,2013-06-03 06:12:00,
2013-06-03 02:17:00,64.8,63.0,29.80,SSW,199,0.0,0.0,94,0.00,,OVC090,0.00,VWS V14.01,2013-06-03 06:17:00,
2013-06-03 02:22:00,64.8,63.0,29.80,SSW,199,0.0,0.0,94,0.00,,OVC090,0.00,VWS V14.01,2013-06-03 06:22:00,
2013-06-03 02:27:00,64.6,62.8,29.80,SSW,199,0.0,0.0,94,0.00,,OVC090,0.00,VWS V14.01,2013-06-03 06:27:00,
2013-06-03 02:32:00,64.6,62.8,29.79,SSW,199,0.0,0.0,94,0.00,,OVC090,0.00,VWS V14.01,2013-06-03 06:32:00,
2013-06-03 02:37:00,64.6,62.8,29.79,SSW,199,0.0,0.0,94,0.00,,OVC090,0.00,VWS V14.01,2013-06-03 06:37:00,
2013-06-03 02:42:00,64.6,62.8,29.79,SSW,199,0.0,0.0,94,0.00,,OVC090,0.00,VWS V14.01,2013-06-03 06:42:00,
2013-06-03 02:47:00,64.6,63.1,29.78,SSW,199,0.0,0.0,95,0.00,,OVC090,0.00,VWS V14.01,2013-06-03 06:47:00,
2013-06-03 02:52:00,64.5,63.0,29.78,SSW,199,0.0,0.0,95,0.00,,OVC090,0.00,VWS V14.01,2013-06-03 06:52:00,
2013-06-03 02:57:00,64.5,63.0,29.78,SSW,199,0.0,0.0,95,0.00,,OVC090,0.00,VWS V14.01,2013-06-03 06:57:00,
2013-06-03 03:02:00,64.6,63.1,29.78,SSW,199,0.0,0.0,95,0.00,,OVC080,0.00,VWS V14.01,2013-06-03 07:02:00,
2013-06-03 03:07:00,64.6,63.1,29.78,SSW,199,0.0,0.0,95,0.00,,OVC080,0.00,VWS V14.01,2013-06-03 07:07:00,
2013-06-03 03:12:00,64.6,63.1,29.78,SSW,199,0.0,0.0,95,0.00,,OVC080,0.00,VWS V14.01,2013-06-03 07:12:00,
2013-06-03 03:17:00,64.6,63.1,29.79,SSW,199,0.0,0.0,95,0.00,,OVC080,0.00,VWS V14.01,2013-06-03 07:17:00,
2013-06-03 03:22:00,64.6,63.1,29.79,SSW,199,0.0,0.0,95,0.00,,OVC080,0.00,VWS V14.01,2013-06-03 07:22:00,
2013-06-03 03:27:00,64.6,63.1,29.79,SSW,199,0.0,1.5,95,0.00,,OVC080,0.00,VWS V14.01,2013-06-03 07:27:00,
2013-06-03 03:32:00,64.6,63.1,29.79,SSW,199,0.0,1.5,95,0.00,,OVC080,0.00,VWS V14.01,2013-06-03 07:32:00,
2013-06-03 03:37:00,64.5,63.0,29.79,SSW,199,0.0,1.5,95,0.00,,OVC080,0.00,VWS V14.01,2013-06-03 07:37:00,
2013-06-03 03:42:00,64.3,62.8,29.79,SSW,199,0.0,1.5,95,0.00,,OVC080,0.00,VWS V14.01,2013-06-03 07:42:00,
2013-06-03 03:47:00,64.3,62.8,29.78,SSW,199,0.0,1.5,95,0.00,,OVC080,0.00,VWS V14.01,2013-06-03 07:47:00,
2013-06-03 03:53:00,64.2,62.7,29.78,SSW,199,0.0,0.0,95,0.00,,OVC080,0.00,VWS V14.01,2013-06-03 07:53:00,
2013-06-03 03:58:00,64.2,62.7,29.78,SSW,199,0.0,0.0,95,0.00,,OVC080,0.00,VWS V14.01,2013-06-03 07:58:00,
2013-06-03 04:03:00,64.2,62.7,29.78,SSW,199,0.0,0.0,95,0.00,,OVC120,0.00,VWS V14.01,2013-06-03 08:03:00,
2013-06-03 04:08:00,64.0,62.5,29.78,SSW,199,0.0,0.0,95,0.00,,OVC120,0.00,VWS V14.01,2013-06-03 08:08:00,
2013-06-03 04:13:00,64.0,62.5,29.78,SSW,199,0.0,0.0,95,0.00,,OVC120,0.00,VWS V14.01,2013-06-03 08:13:00,
2013-06-03 04:18:00,63.8,62.3,29.79,SSW,199,0.0,0.0,95,0.00,,OVC120,0.00,VWS V14.01,2013-06-03 08:18:00,
2013-06-03 04:23:00,63.8,62.3,29.79,SSW,199,0.0,0.0,95,0.00,,OVC120,0.00,VWS V14.01,2013-06-03 08:23:00,
2013-06-03 04:28:00,63.7,62.2,29.79,SSW,199,0.0,0.0,95,0.00,,OVC120,0.00,VWS V14.01,2013-06-03 08:28:00,
2013-06-03 04:33:00,63.5,62.0,29.79,SSW,199,0.0,0.0,95,0.00,,OVC120,0.00,VWS V14.01,2013-06-03 08:33:00,
2013-06-03 04:38:00,63.5,62.0,29.79,SSW,199,0.0,0.0,95,0.00,,OVC120,0.00,VWS V14.01,2013-06-03 08:38:00,
2013-06-03 04:43:00,63.5,62.0,29.79,SSW,199,0.0,0.0,95,0.00,,OVC120,0.00,VWS V14.01,2013-06-03 08:43:00,
2013-06-03 04:48:00,63.5,62.0,29.80,SSW,199,0.0,0.0,95,0.00,,OVC120,0.00,VWS V14.01,2013-06-03 08:48:00,
2013-06-03 04:53:00,63.5,62.0,29.80,SSW,199,0.0,0.0,95,0.00,,OVC120,0.00,VWS V14.01,2013-06-03 08:53:00,
2013-06-03 04:58:00,63.5,62.0,29.80,SSW,199,0.0,0.0,95,0.00,,OVC120,0.00,VWS V14.01,2013-06-03 08:58:00,
2013-06-03 05:03:00,63.5,62.0,29.79,SSW,199,0.0,0.0,95,0.00,,BKN120,0.00,VWS V14.01,2013-06-03 09:03:00,
2013-06-03 05:08:00,63.5,62.0,29.79,SSW,199,0.0,0.0,95,0.00,,BKN120,0.00,VWS V14.01,2013-06-03 09:08:00,
2013-06-03 05:13:00,63.3,61.8,29.79,SSW,199,0.0,0.0,95,0.00,,BKN120,0.00,VWS V14.01,2013-06-03 09:13:00,
2013-06-03 05:18:00,63.3,61.8,29.80,SSW,199,0.0,0.0,95,0.00,,BKN120,0.00,VWS V14.01,2013-06-03 09:18:00,
2013-06-03 05:23:00,63.3,61.8,29.80,SSW,199,0.0,0.0,95,0.00,,BKN120,0.00,VWS V14.01,2013-06-03 09:23:00,
2013-06-03 05:28:00,63.3,61.8,29.80,SSW,199,0.0,0.0,95,0.00,,BKN120,0.00,VWS V14.01,2013-06-03 09:28:00,
2013-06-03 05:33:00,63.3,61.8,29.80,SSW,199,0.0,0.0,95,0.00,,BKN120,0.00,VWS V14.01,2013-06-03 09:33:00,
2013-06-03 05:38:00,63.7,62.2,29.80,South,180,0.0,7.5,95,0.00,,BKN120,0.00,VWS V14.01,2013-06-03 09:38:00,
2013-06-03 05:43:00,63.8,62.3,29.80,South,171,0.0,7.5,95,0.00,,BKN120,0.00,VWS V14.01,2013-06-03 09:43:00,
2013-06-03 05:48:00,63.8,62.3,29.81,South,171,0.0,7.5,95,0.00,,BKN120,0.00,VWS V14.01,2013-06-03 09:48:00,
2013-06-03 05:53:00,63.7,62.2,29.81,SSW,193,7.5,9.0,95,0.00,,BKN120,0.00,VWS V14.01,2013-06-03 09:53:00,
2013-06-03 05:58:00,63.5,62.0,29.81,SSW,193,4.5,9.0,95,0.00,,BKN120,0.00,VWS V14.01,2013-06-03 09:58:00,
2013-06-03 06:03:00,63.5,62.0,29.81,SSW,199,7.5,9.0,95,0.00,,OVC085,0.00,VWS V14.01,2013-06-03 10:03:00,
2013-06-03 06:08:00,63.3,61.8,29.81,SSW,202,0.0,9.0,95,0.00,,OVC085,0.00,VWS V14.01,2013-06-03 10:08:00,
2013-06-03 06:13:00,63.3,61.8,29.81,SSW,201,0.0,9.0,95,0.00,,OVC085,0.00,VWS V14.01,2013-06-03 10:13:00,
2013-06-03 06:18:00,63.3,61.8,29.81,SSW,202,0.0,7.5,95,0.00,,OVC085,0.00,VWS V14.01,2013-06-03 10:18:00,
2013-06-03 06:23:00,63.3,61.8,29.81,SSW,202,6.0,7.5,95,0.00,,OVC085,0.00,VWS V14.01,2013-06-03 10:23:00,
2013-06-03 06:28:00,63.2,61.8,29.81,SSW,202,6.0,6.0,95,0.00,,OVC085,0.00,VWS V14.01,2013-06-03 10:28:00,
2013-06-03 06:33:00,63.2,61.8,29.82,SSW,197,3.0,6.0,95,0.00,,OVC085,0.00,VWS V14.01,2013-06-03 10:33:00,
2013-06-03 06:38:00,63.3,61.8,29.82,SSW,198,0.0,6.0,95,0.00,,OVC085,0.00,VWS V14.01,2013-06-03 10:38:00,
2013-06-03 06:43:00,63.3,61.8,29.82,SSW,198,0.0,6.0,95,0.00,,OVC085,0.00,VWS V14.01,2013-06-03 10:43:00,
2013-06-03 06:48:00,63.3,61.8,29.83,SSW,197,0.0,6.0,95,0.00,,OVC085,0.00,VWS V14.01,2013-06-03 10:48:00,
2013-06-03 06:53:00,63.2,61.8,29.83,SSW,198,0.0,4.5,95,0.00,,OVC085,0.00,VWS V14.01,2013-06-03 10:53:00,
2013-06-03 06:58:00,63.2,61.5,29.83,SSW,197,0.0,3.0,94,0.00,,OVC085,0.00,VWS V14.01,2013-06-03 10:58:00,
2013-06-03 07:03:00,63.0,61.2,29.83,SW,234,3.0,4.5,94,0.00,,OVC085,0.00,VWS V14.01,2013-06-03 11:03:00,
2013-06-03 07:08:00,63.0,61.2,29.83,SW,233,1.5,4.5,94,0.00,,OVC085,0.00,VWS V14.01,2013-06-03 11:08:00,
2013-06-03 07:13:00,63.0,61.2,29.83,SW,232,0.0,4.5,94,0.00,,OVC085,0.00,VWS V14.01,2013-06-03 11:13:00,
2013-06-03 07:18:00,63.2,61.5,29.83,SW,232,0.0,4.5,94,0.00,,OVC085,0.00,VWS V14.01,2013-06-03 11:18:00,
2013-06-03 07:23:00,63.3,61.5,29.83,SSW,210,4.5,6.0,94,0.00,,OVC085,0.00,VWS V14.01,2013-06-03 11:23:00,
2013-06-03 07:28:00,63.2,61.2,29.83,SW,221,3.0,6.0,93,0.00,,OVC085,0.00,VWS V14.01,2013-06-03 11:28:00,
2013-06-03 07:33:00,63.2,61.2,29.83,SW,226,1.5,6.0,93,0.00,,OVC085,0.00,VWS V14.01,2013-06-03 11:33:00,
2013-06-03 07:38:00,63.3,61.2,29.83,SW,225,3.0,6.0,93,0.00,,OVC085,0.00,VWS V14.01,2013-06-03 11:38:00,
2013-06-03 07:43:00,63.3,60.9,29.83,SW,225,1.5,6.0,92,0.00,,OVC085,0.00,VWS V14.01,2013-06-03 11:43:00,
2013-06-03 07:48:00,63.3,60.9,29.84,SW,225,4.5,6.0,92,0.00,,OVC085,0.00,VWS V14.01,2013-06-03 11:48:00,
2013-06-03 07:53:00,63.3,60.9,29.84,SW,228,6.0,6.0,92,0.00,,OVC085,0.00,VWS V14.01,2013-06-03 11:53:00,
2013-06-03 07:59:00,63.3,60.6,29.84,SW,226,3.0,6.0,91,0.00,,OVC085,0.00,VWS V14.01,2013-06-03 11:59:00,
2013-06-03 08:04:00,63.2,60.2,29.83,SW,214,3.0,7.5,90,0.00,,OVC085,0.00,VWS V14.01,2013-06-03 12:04:00,
2013-06-03 08:09:00,63.3,60.0,29.83,SSW,205,3.0,7.5,89,0.00,,OVC085,0.00,VWS V14.01,2013-06-03 12:09:00,
2013-06-03 08:14:00,63.3,60.0,29.83,SSW,206,1.5,7.5,89,0.00,,OVC085,0.00,VWS V14.01,2013-06-03 12:14:00,
2013-06-03 08:19:00,63.5,59.9,29.83,SSW,206,0.0,7.5,88,0.00,,OVC085,0.00,VWS V14.01,2013-06-03 12:19:00,
2013-06-03 08:24:00,63.5,60.2,29.83,SSW,206,0.0,7.5,89,0.00,,OVC085,0.00,VWS V14.01,2013-06-03 12:24:00,
2013-06-03 08:29:00,63.7,60.4,29.83,SW,220,1.5,7.5,89,0.00,,OVC085,0.00,VWS V14.01,2013-06-03 12:29:00,
2013-06-03 08:34:00,63.7,60.4,29.83,SW,220,0.0,4.5,89,0.00,,OVC085,0.00,VWS V14.01,2013-06-03 12:34:00,
2013-06-03 08:39:00,63.7,60.4,29.83,SW,220,0.0,3.0,89,0.00,,OVC085,0.00,VWS V14.01,2013-06-03 12:39:00,
2013-06-03 08:44:00,63.8,60.8,29.83,SW,220,0.0,3.0,90,0.00,,OVC085,0.00,VWS V14.01,2013-06-03 12:44:00,
2013-06-03 08:49:00,64.0,61.0,29.84,SW,220,0.0,3.0,90,0.00,,OVC085,0.00,VWS V14.01,2013-06-03 12:49:00,
2013-06-03 08:54:00,64.0,61.0,29.84,SW,220,0.0,1.5,90,0.00,,OVC085,0.00,VWS V14.01,2013-06-03 12:54:00,
2013-06-03 08:59:00,64.2,61.5,29.84,SW,221,0.0,0.0,91,0.00,,OVC085,0.00,VWS V14.01,2013-06-03 12:59:00,
2013-06-03 09:04:00,64.5,61.8,29.84,SW,220,0.0,0.0,91,0.00,,OVC085,0.00,VWS V14.01,2013-06-03 13:04:00,
2013-06-03 09:09:00,64.6,61.9,29.84,SW,220,0.0,0.0,91,0.00,,OVC085,0.00,VWS V14.01,2013-06-03 13:09:00,
2013-06-03 09:14:00,64.8,61.5,29.84,SW,220,0.0,0.0,89,0.00,,OVC085,0.00,VWS V14.01,2013-06-03 13:14:00,
2013-06-03 09:19:00,65.0,61.0,29.84,SW,221,1.5,3.0,87,0.00,,OVC085,0.00,VWS V14.01,2013-06-03 13:19:00,
2013-06-03 09:24:00,65.4,61.1,29.84,SW,220,0.0,3.0,86,0.00,,OVC085,0.00,VWS V14.01,2013-06-03 13:24:00,
2013-06-03 09:29:00,66.3,62.3,29.84,SW,220,0.0,3.0,87,0.00,,OVC085,0.00,VWS V14.01,2013-06-03 13:29:00,
2013-06-03 09:34:00,66.9,61.6,29.84,SW,220,0.0,3.0,83,0.00,,OVC085,0.00,VWS V14.01,2013-06-03 13:34:00,
2013-06-03 09:39:00,67.3,61.6,29.84,SW,220,1.5,3.0,82,0.00,,OVC085,0.00,VWS V14.01,2013-06-03 13:39:00,
2013-06-03 09:44:00,67.3,61.6,29.84,SW,220,0.0,1.5,82,0.00,,OVC085,0.00,VWS V14.01,2013-06-03 13:44:00,
2013-06-03 09:49:00,67.6,62.3,29.84,SW,220,0.0,1.5,83,0.00,,OVC085,0.00,VWS V14.01,2013-06-03 13:49:00,
2013-06-03 09:54:00,67.4,61.0,29.84,SW,220,0.0,1.5,80,0.00,,OVC085,0.00,VWS V14.01,2013-06-03 13:54:00,
2013-06-03 09:59:00,67.4,61.0,29.84,SW,220,0.0,1.5,80,0.00,,OVC085,0.00,VWS V14.01,2013-06-03 13:59:00,
2013-06-03 10:04:00,67.4,61.4,29.83,SW,220,0.0,1.5,81,0.00,,CLR,0.00,VWS V14.01,2013-06-03 14:04:00,
2013-06-03 10:09:00,67.9,61.5,29.83,SW,220,0.0,1.5,80,0.00,,CLR,0.00,VWS V14.01,2013-06-03 14:09:00,
2013-06-03 10:14:00,68.4,60.9,29.83,SW,221,0.0,1.5,77,0.00,,CLR,0.00,VWS V14.01,2013-06-03 14:14:00,
2013-06-03 10:19:00,68.9,60.7,29.83,WSW,238,6.0,6.0,75,0.00,,CLR,0.00,VWS V14.01,2013-06-03 14:19:00,
2013-06-03 10:24:00,68.9,61.0,29.83,WSW,240,0.0,9.0,76,0.00,,CLR,0.00,VWS V14.01,2013-06-03 14:24:00,
2013-06-03 10:29:00,69.1,60.5,29.83,SW,231,1.5,9.0,74,0.00,,CLR,0.00,VWS V14.01,2013-06-03 14:29:00,
2013-06-03 10:34:00,69.3,60.7,29.83,SW,233,3.0,9.0,74,0.00,,CLR,0.00,VWS V14.01,2013-06-03 14:34:00,
2013-06-03 10:39:00,68.9,60.7,29.83,SSW,208,1.5,9.0,75,0.00,,CLR,0.00,VWS V14.01,2013-06-03 14:39:00,
2013-06-03 10:44:00,69.1,61.2,29.83,SSW,209,1.5,9.0,76,0.00,,CLR,0.00,VWS V14.01,2013-06-03 14:44:00,
2013-06-03 10:49:00,69.3,61.8,29.82,SSW,199,0.0,9.0,77,0.00,,CLR,0.00,VWS V14.01,2013-06-03 14:49:00,
2013-06-03 10:54:00,69.3,61.8,29.82,SSW,201,3.0,9.0,77,0.00,,CLR,0.00,VWS V14.01,2013-06-03 14:54:00,
2013-06-03 10:59:00,69.3,60.3,29.82,SW,226,0.0,9.0,73,0.00,,CLR,0.00,VWS V14.01,2013-06-03 14:59:00,
2013-06-03 11:04:00,69.1,60.5,29.82,SW,226,0.0,6.0,74,0.00,,FEW022,0.00,VWS V14.01,2013-06-03 15:04:00,
2013-06-03 11:09:00,69.1,60.8,29.82,SW,226,0.0,6.0,75,0.00,,FEW022,0.00,VWS V14.01,2013-06-03 15:09:00,
2013-06-03 11:14:00,69.3,61.0,29.82,SW,226,1.5,3.0,75,0.00,,FEW022,0.00,VWS V14.01,2013-06-03 15:14:00,
2013-06-03 11:19:00,69.4,60.8,29.82,SW,226,1.5,3.0,74,0.00,,FEW022,0.00,VWS V14.01,2013-06-03 15:19:00,
2013-06-03 11:24:00,69.3,60.7,29.82,SW,226,1.5,3.0,74,0.00,,FEW022,0.00,VWS V14.01,2013-06-03 15:24:00,
2013-06-03 11:29:00,69.1,59.7,29.82,SW,229,4.5,7.5,72,0.00,,FEW022,0.00,VWS V14.01,2013-06-03 15:29:00,
2013-06-03 11:34:00,68.9,59.9,29.82,SW,235,4.5,7.5,73,0.00,,FEW022,0.00,VWS V14.01,2013-06-03 15:34:00,
2013-06-03 11:39:00,68.9,60.7,29.82,SSW,213,4.5,9.0,75,0.00,,FEW022,0.00,VWS V14.01,2013-06-03 15:39:00,
2013-06-03 11:44:00,68.9,61.0,29.82,SSW,206,6.0,9.0,76,0.00,,FEW022,0.00,VWS V14.01,2013-06-03 15:44:00,
2013-06-03 11:49:00,68.9,61.8,29.82,SSW,195,3.0,9.0,78,0.00,,FEW022,0.00,VWS V14.01,2013-06-03 15:49:00,
2013-06-03 11:54:00,69.4,62.6,29.82,SSW,193,3.0,9.0,79,0.00,,FEW022,0.00,VWS V14.01,2013-06-03 15:54:00,
2013-06-03 11:59:00,70.1,62.6,29.82,SSW,193,3.0,9.0,77,0.00,,FEW022,0.00,VWS V14.01,2013-06-03 15:59:00,
2013-06-03 12:04:00,70.8,63.6,29.81,SSW,193,0.0,9.0,78,0.00,,BKN049,0.00,VWS V14.01,2013-06-03 16:04:00,
2013-06-03 12:09:00,71.5,63.9,29.81,South,171,6.0,6.0,77,0.00,,BKN049,0.00,VWS V14.01,2013-06-03 16:09:00,
2013-06-03 12:15:00,72.3,64.7,29.81,South,189,3.0,6.0,77,0.00,,BKN049,0.00,VWS V14.01,2013-06-03 16:15:00,
2013-06-03 12:20:00,72.5,63.4,29.81,South,189,0.0,6.0,73,0.00,,BKN049,0.00,VWS V14.01,2013-06-03 16:20:00,
2013-06-03 12:25:00,72.9,64.1,29.81,SSW,211,9.0,13.5,74,0.00,,BKN049,0.00,VWS V14.01,2013-06-03 16:25:00,
2013-06-03 12:30:00,73.0,63.0,29.80,South,171,6.0,13.5,71,0.00,,BKN049,0.00,VWS V14.01,2013-06-03 16:30:00,
2013-06-03 12:35:00,73.0,63.0,29.80,South,171,6.0,13.5,71,0.00,,BKN049,0.00,VWS V14.01,2013-06-03 16:35:00,
2013-06-03 12:40:00,72.7,62.4,29.80,SSW,195,7.5,13.5,70,0.00,,BKN049,0.00,VWS V14.01,2013-06-03 16:40:00,
2013-06-03 12:45:00,72.5,62.6,29.79,South,180,6.0,13.5,71,0.00,,BKN049,0.00,VWS V14.01,2013-06-03 16:45:00,
2013-06-03 12:50:00,72.9,62.1,29.79,South,171,4.5,12.0,69,0.00,,BKN049,0.00,VWS V14.01,2013-06-03 16:50:00,
2013-06-03 12:55:00,73.2,62.0,29.79,SSE,168,9.0,15.0,68,0.00,,BKN049,0.00,VWS V14.01,2013-06-03 16:55:00,
2013-06-03 13:00:00,73.6,62.0,29.79,South,189,4.5,15.0,67,0.00,,BKN049,0.00,VWS V14.01,2013-06-03 17:00:00,
2013-06-03 13:05:00,73.6,62.0,29.79,SSE,165,4.5,15.0,67,0.00,,FEW032,0.00,VWS V14.01,2013-06-03 17:05:00,
2013-06-03 13:10:00,73.4,61.8,29.79,SW,223,7.5,15.0,67,0.00,,FEW032,0.00,VWS V14.01,2013-06-03 17:10:00,
2013-06-03 13:15:00,73.6,59.8,29.78,SW,232,3.0,13.5,62,0.00,,FEW032,0.00,VWS V14.01,2013-06-03 17:15:00,
2013-06-03 13:20:00,73.9,60.1,29.78,SW,231,3.0,13.5,62,0.00,,FEW032,0.00,VWS V14.01,2013-06-03 17:20:00,
2013-06-03 13:25:00,73.9,60.1,29.78,WSW,237,3.0,9.0,62,0.00,,FEW032,0.00,VWS V14.01,2013-06-03 17:25:00,
2013-06-03 13:30:00,73.6,60.7,29.78,SW,233,0.0,9.0,64,0.00,,FEW032,0.00,VWS V14.01,2013-06-03 17:30:00,
2013-06-03 13:35:00,73.6,61.1,29.78,SW,233,0.0,7.5,65,0.00,,FEW032,0.00,VWS V14.01,2013-06-03 17:35:00,
2013-06-03 13:40:00,73.2,59.9,29.78,SW,233,0.0,7.5,63,0.00,,FEW032,0.00,VWS V14.01,2013-06-03 17:40:00,
2013-06-03 13:45:00,73.0,59.7,29.77,SW,233,0.0,7.5,63,0.00,,FEW032,0.00,VWS V14.01,2013-06-03 17:45:00,
2013-06-03 13:50:00,72.7,59.8,29.77,SW,233,1.5,7.5,64,0.00,,FEW032,0.00,VWS V14.01,2013-06-03 17:50:00,
2013-06-03 13:55:00,72.3,59.5,29.77,WSW,243,0.0,6.0,64,0.00,,FEW032,0.00,VWS V14.01,2013-06-03 17:55:00,
2013-06-03 14:00:00,72.0,60.0,29.77,WSW,244,0.0,6.0,66,0.00,,FEW032,0.00,VWS V14.01,2013-06-03 18:00:00,
2013-06-03 14:05:00,71.8,60.7,29.77,WSW,243,0.0,6.0,68,0.00,,CLR,0.00,VWS V14.01,2013-06-03 18:05:00,
2013-06-03 14:10:00,72.0,60.5,29.77,WSW,243,0.0,6.0,67,0.00,,CLR,0.00,VWS V14.01,2013-06-03 18:10:00,
2013-06-03 14:15:00,72.5,60.5,29.76,WSW,243,0.0,1.5,66,0.00,,CLR,0.00,VWS V14.01,2013-06-03 18:15:00,
2013-06-03 14:20:00,72.7,60.7,29.76,WSW,243,0.0,1.5,66,0.00,,CLR,0.00,VWS V14.01,2013-06-03 18:20:00,
2013-06-03 14:25:00,73.6,61.1,29.76,WSW,244,0.0,1.5,65,0.00,,CLR,0.00,VWS V14.01,2013-06-03 18:25:00,
2013-06-03 14:30:00,74.1,59.8,29.76,WSW,244,0.0,1.5,61,0.00,,CLR,0.00,VWS V14.01,2013-06-03 18:30:00,
2013-06-03 14:35:00,74.8,60.9,29.76,WSW,244,0.0,0.0,62,0.00,,CLR,0.00,VWS V14.01,2013-06-03 18:35:00,
2013-06-03 14:40:00,75.0,61.1,29.76,WSW,245,0.0,0.0,62,0.00,,CLR,0.00,VWS V14.01,2013-06-03 18:40:00,
2013-06-03 14:45:00,74.8,61.4,29.75,SW,220,0.0,1.5,63,0.00,,CLR,0.00,VWS V14.01,2013-06-03 18:45:00,
2013-06-03 14:50:00,74.6,61.2,29.75,SW,224,3.0,6.0,63,0.00,,CLR,0.00,VWS V14.01,2013-06-03 18:50:00,
2013-06-03 14:55:00,74.6,61.2,29.75,SW,221,1.5,6.0,63,0.00,,CLR,0.00,VWS V14.01,2013-06-03 18:55:00,
2013-06-03 15:00:00,75.1,61.2,29.75,WSW,238,0.0,6.0,62,0.00,,CLR,0.00,VWS V14.01,2013-06-03 19:00:00,
2013-06-03 15:05:00,75.8,60.9,29.75,WSW,241,6.0,6.0,60,0.00,,BKN085,0.00,VWS V14.01,2013-06-03 19:05:00,
2013-06-03 15:10:00,76.2,58.4,29.75,WSW,251,6.0,15.0,54,0.00,,BKN085,0.00,VWS V14.01,2013-06-03 19:10:00,
2013-06-03 15:15:00,75.7,57.4,29.75,West,261,1.5,15.0,53,0.00,,BKN085,0.00,VWS V14.01,2013-06-03 19:15:00,
2013-06-03 15:20:00,75.3,57.5,29.75,WSW,243,4.5,15.0,54,0.00,,BKN085,0.00,VWS V14.01,2013-06-03 19:20:00,
2013-06-03 15:25:00,75.7,59.4,29.75,WSW,245,1.5,15.0,57,0.00,,BKN085,0.00,VWS V14.01,2013-06-03 19:25:00,
2013-06-03 15:30:00,76.2,59.9,29.75,WSW,241,0.0,9.0,57,0.00,,BKN085,0.00,VWS V14.01,2013-06-03 19:30:00,
2013-06-03 15:35:00,76.6,59.2,29.75,WSW,241,0.0,7.5,55,0.00,,BKN085,0.00,VWS V14.01,2013-06-03 19:35:00,
2013-06-03 15:40:00,76.6,58.2,29.75,WSW,241,0.0,6.0,53,0.00,,BKN085,0.00,VWS V14.01,2013-06-03 19:40:00,
2013-06-03 15:45:00,75.7,56.8,29.74,WSW,242,0.0,6.0,52,0.00,,BKN085,0.00,VWS V14.01,2013-06-03 19:45:00,
2013-06-03 15:50:00,75.0,56.2,29.74,WSW,241,6.0,13.5,52,0.00,,BKN085,0.00,VWS V14.01,2013-06-03 19:50:00,
2013-06-03 15:55:00,75.1,56.3,29.74,WSW,242,16.5,18.0,52,0.00,,BKN085,0.00,VWS V14.01,2013-06-03 19:55:00,
2013-06-03 16:00:00,75.7,57.9,29.74,SW,235,4.5,18.0,54,0.00,,BKN085,0.00,VWS V14.01,2013-06-03 20:00:00,
2013-06-03 16:05:00,75.8,56.4,29.74,WSW,245,4.5,18.0,51,0.00,,OVC090,0.00,VWS V14.01,2013-06-03 20:05:00,
2013-06-03 16:10:00,75.5,55.0,29.74,WSW,250,0.0,18.0,49,0.00,,OVC090,0.00,VWS V14.01,2013-06-03 20:10:00,
2013-06-03 16:15:00,75.0,55.7,29.74,WSW,257,1.5,18.0,51,0.00,,OVC090,0.00,VWS V14.01,2013-06-03 20:15:00,
2013-06-03 16:20:00,74.8,56.5,29.74,SW,235,6.0,10.5,53,0.00,,OVC090,0.00,VWS V14.01,2013-06-03 20:20:00,
2013-06-03 16:26:00,74.6,55.3,29.74,WSW,239,4.5,10.5,51,0.00,,OVC090,0.00,VWS V14.01,2013-06-03 20:26:00,
2013-06-03 16:30:00,75.0,56.2,29.74,WSW,241,1.5,10.5,52,0.00,,OVC090,0.00,VWS V14.01,2013-06-03 20:30:00,
2013-06-03 16:36:00,75.0,54.0,29.74,West,264,4.5,10.5,48,0.00,,OVC090,0.00,VWS V14.01,2013-06-03 20:36:00,
2013-06-03 16:41:00,74.8,53.2,29.74,WSW,258,6.0,10.5,47,0.00,,OVC090,0.00,VWS V14.01,2013-06-03 20:41:00,
2013-06-03 16:46:00,74.4,52.9,29.74,West,266,0.0,7.5,47,0.00,,OVC090,0.00,VWS V14.01,2013-06-03 20:46:00,
2013-06-03 16:51:00,73.9,52.4,29.74,WSW,242,3.0,7.5,47,0.00,,OVC090,0.00,VWS V14.01,2013-06-03 20:51:00,
2013-06-03 16:56:00,73.7,53.9,29.74,WSW,240,0.0,13.5,50,0.00,,OVC090,0.00,VWS V14.01,2013-06-03 20:56:00,
2013-06-03 17:01:00,73.6,53.3,29.74,WSW,256,0.0,13.5,49,0.00,,OVC090,0.00,VWS V14.01,2013-06-03 21:01:00,
2013-06-03 17:06:00,73.6,54.9,29.74,WSW,256,0.0,13.5,52,0.00,,SCT065,0.00,VWS V14.01,2013-06-03 21:06:00,
2013-06-03 17:11:00,73.2,51.8,29.74,WNW,303,4.5,13.5,47,0.00,,SCT065,0.00,VWS V14.01,2013-06-03 21:11:00,
2013-06-03 17:16:00,73.2,52.9,29.74,NW,310,1.5,7.5,49,0.00,,SCT065,0.00,VWS V14.01,2013-06-03 21:16:00,
2013-06-03 17:21:00,73.0,52.2,29.74,NW,308,1.5,7.5,48,0.00,,SCT065,0.00,VWS V14.01,2013-06-03 21:21:00,
2013-06-03 17:26:00,73.0,53.8,29.74,WNW,296,0.0,7.5,51,0.00,,SCT065,0.00,VWS V14.01,2013-06-03 21:26:00,
2013-06-03 17:31:00,72.9,53.2,29.75,NW,315,0.0,7.5,50,0.00,,SCT065,0.00,VWS V14.01,2013-06-03 21:31:00,
2013-06-03 17:36:00,72.5,51.2,29.75,NW,304,4.5,7.5,47,0.00,,SCT065,0.00,VWS V14.01,2013-06-03 21:36:00,
2013-06-03 17:41:00,72.3,49.8,29.75,West,276,3.0,7.5,45,0.00,,SCT065,0.00,VWS V14.01,2013-06-03 21:41:00,
2013-06-03 17:46:00,72.3,52.1,29.75,NW,314,3.0,7.5,49,0.00,,SCT065,0.00,VWS V14.01,2013-06-03 21:46:00,
2013-06-03 17:52:00,72.2,52.0,29.75,WNW,301,4.5,7.5,49,0.00,,SCT065,0.00,VWS V14.01,2013-06-03 21:52:00,
2013-06-03 17:57:00,72.0,50.7,29.75,NW,309,1.5,7.5,47,0.00,,SCT065,0.00,VWS V14.01,2013-06-03 21:57:00,
2013-06-03 18:02:00,72.0,51.8,29.75,NW,308,3.0,7.5,49,0.00,,SCT065,0.00,VWS V14.01,2013-06-03 22:02:00,
2013-06-03 18:07:00,71.8,52.2,29.75,WNW,303,3.0,9.0,50,0.00,,CLR,0.00,VWS V14.01,2013-06-03 22:07:00,
2013-06-03 18:12:00,71.5,50.2,29.75,NW,306,7.5,9.0,47,0.00,,CLR,0.00,VWS V14.01,2013-06-03 22:12:00,
2013-06-03 18:17:00,71.3,50.0,29.75,NNW,330,7.5,9.0,47,0.00,,CLR,0.00,VWS V14.01,2013-06-03 22:17:00,
2013-06-03 18:22:00,71.1,51.5,29.75,WNW,298,3.0,9.0,50,0.00,,CLR,0.00,VWS V14.01,2013-06-03 22:22:00,
2013-06-03 18:27:00,71.0,52.0,29.75,WNW,302,3.0,9.0,51,0.00,,CLR,0.00,VWS V14.01,2013-06-03 22:27:00,
2013-06-03 18:32:00,70.6,52.1,29.75,WNW,301,3.0,9.0,52,0.00,,CLR,0.00,VWS V14.01,2013-06-03 22:32:00,
2013-06-03 18:37:00,70.6,51.6,29.75,WNW,297,0.0,7.5,51,0.00,,CLR,0.00,VWS V14.01,2013-06-03 22:37:00,
2013-06-03 18:42:00,70.5,51.0,29.75,WNW,303,4.5,7.5,50,0.00,,CLR,0.00,VWS V14.01,2013-06-03 22:42:00,
2013-06-03 18:47:00,70.3,50.3,29.76,WNW,299,1.5,7.5,49,0.00,,CLR,0.00,VWS V14.01,2013-06-03 22:47:00,
2013-06-03 18:52:00,70.1,50.6,29.76,WNW,286,4.5,7.5,50,0.00,,CLR,0.00,VWS V14.01,2013-06-03 22:52:00,
2013-06-03 18:57:00,70.1,49.5,29.76,WNW,284,3.0,7.5,48,0.00,,CLR,0.00,VWS V14.01,2013-06-03 22:57:00,
2013-06-03 19:02:00,69.9,51.0,29.77,NW,308,0.0,7.5,51,0.00,,CLR,0.00,VWS V14.01,2013-06-03 23:02:00,
2013-06-03 19:07:00,69.8,49.8,29.77,NW,307,0.0,6.0,49,0.00,,SCT065,0.00,VWS V14.01,2013-06-03 23:07:00,
2013-06-03 19:12:00,69.6,50.2,29.77,West,274,4.5,4.5,50,0.00,,SCT065,0.00,VWS V14.01,2013-06-03 23:12:00,
2013-06-03 19:17:00,69.4,50.0,29.77,West,274,0.0,4.5,50,0.00,,SCT065,0.00,VWS V14.01,2013-06-03 23:17:00,
2013-06-03 19:22:00,69.1,49.7,29.77,West,264,3.0,6.0,50,0.00,,SCT065,0.00,VWS V14.01,2013-06-03 23:22:00,
2013-06-03 19:27:00,68.9,49.5,29.77,West,264,1.5,6.0,50,0.00,,SCT065,0.00,VWS V14.01,2013-06-03 23:27:00,
2013-06-03 19:32:00,68.8,51.5,29.78,West,264,4.5,6.0,54,0.00,,SCT065,0.00,VWS V14.01,2013-06-03 23:32:00,
2013-06-03 19:37:00,68.6,50.8,29.78,West,264,3.0,6.0,53,0.00,,SCT065,0.00,VWS V14.01,2013-06-03 23:37:00,
2013-06-03 19:42:00,68.4,50.1,29.78,West,264,0.0,6.0,52,0.00,,SCT065,0.00,VWS V14.01,2013-06-03 23:42:00,
2013-06-03 19:47:00,68.4,51.1,29.78,West,264,0.0,4.5,54,0.00,,SCT065,0.00,VWS V14.01,2013-06-03 23:47:00,
2013-06-03 19:52:00,68.3,50.5,29.78,West,264,0.0,4.5,53,0.00,,SCT065,0.00,VWS V14.01,2013-06-03 23:52:00,
2013-06-03 19:57:00,68.1,51.8,29.78,West,264,0.0,4.5,56,0.00,,SCT065,0.00,VWS V14.01,2013-06-03 23:57:00,
2013-06-03 20:02:00,67.9,51.6,29.78,West,264,0.0,3.0,56,0.00,,SCT065,0.00,VWS V14.01,2013-06-04 00:02:00,
2013-06-03 20:07:00,67.8,52.5,29.78,West,264,0.0,1.5,58,0.00,,CLR,0.00,VWS V14.01,2013-06-04 00:07:00,
2013-06-03 20:12:00,67.4,53.0,29.78,West,264,0.0,1.5,60,0.00,,CLR,0.00,VWS V14.01,2013-06-04 00:12:00,
2013-06-03 20:17:00,67.1,52.8,29.78,West,264,0.0,1.5,60,0.00,,CLR,0.00,VWS V14.01,2013-06-04 00:17:00,
2013-06-03 20:22:00,66.8,53.8,29.78,West,264,0.0,0.0,63,0.00,,CLR,0.00,VWS V14.01,2013-06-04 00:22:00,
2013-06-03 20:27:00,66.4,53.9,29.78,West,264,0.0,0.0,64,0.00,,CLR,0.00,VWS V14.01,2013-06-04 00:27:00,
2013-06-03 20:32:00,65.8,52.9,29.78,West,264,0.0,0.0,63,0.00,,CLR,0.00,VWS V14.01,2013-06-04 00:32:00,
2013-06-03 20:37:00,65.4,51.2,29.78,West,264,0.0,0.0,60,0.00,,CLR,0.00,VWS V14.01,2013-06-04 00:37:00,
2013-06-03 20:42:00,65.4,51.2,29.78,West,264,0.0,1.5,60,0.00,,CLR,0.00,VWS V14.01,2013-06-04 00:42:00,
2013-06-03 20:47:00,65.4,51.6,29.78,West,264,0.0,1.5,61,0.00,,CLR,0.00,VWS V14.01,2013-06-04 00:47:00,
2013-06-03 20:52:00,65.4,52.1,29.78,West,264,0.0,1.5,62,0.00,,CLR,0.00,VWS V14.01,2013-06-04 00:52:00,
2013-06-03 20:57:00,65.3,51.5,29.78,West,264,0.0,1.5,61,0.00,,CLR,0.00,VWS V14.01,2013-06-04 00:57:00,
2013-06-03 21:02:00,65.3,52.8,29.80,West,264,0.0,1.5,64,0.00,,CLR,0.00,VWS V14.01,2013-06-04 01:02:00,
2013-06-03 21:07:00,65.1,52.6,29.80,West,264,0.0,1.5,64,0.00,,CLR,0.00,VWS V14.01,2013-06-04 01:07:00,
2013-06-03 21:12:00,65.0,52.1,29.80,West,264,0.0,1.5,63,0.00,,CLR,0.00,VWS V14.01,2013-06-04 01:12:00,
2013-06-03 21:17:00,64.8,51.5,29.80,West,264,0.0,1.5,62,0.00,,CLR,0.00,VWS V14.01,2013-06-04 01:17:00,
2013-06-03 21:22:00,64.6,52.2,29.80,West,264,0.0,1.5,64,0.00,,CLR,0.00,VWS V14.01,2013-06-04 01:22:00,
2013-06-03 21:27:00,64.6,52.6,29.80,West,264,0.0,1.5,65,0.00,,CLR,0.00,VWS V14.01,2013-06-04 01:27:00,
2013-06-03 21:32:00,64.5,52.5,29.80,West,264,0.0,1.5,65,0.00,,CLR,0.00,VWS V14.01,2013-06-04 01:32:00,
2013-06-03 21:37:00,64.3,52.3,29.80,West,264,0.0,1.5,65,0.00,,CLR,0.00,VWS V14.01,2013-06-04 01:37:00,
2013-06-03 21:42:00,64.2,52.2,29.80,West,264,0.0,1.5,65,0.00,,CLR,0.00,VWS V14.01,2013-06-04 01:42:00,
2013-06-03 21:47:00,64.0,52.4,29.80,West,264,0.0,1.5,66,0.00,,CLR,0.00,VWS V14.01,2013-06-04 01:47:00,
2013-06-03 21:53:00,63.8,51.8,29.80,West,264,0.0,1.5,65,0.00,,CLR,0.00,VWS V14.01,2013-06-04 01:53:00,
2013-06-03 21:58:00,63.8,52.7,29.80,West,264,0.0,1.5,67,0.00,,CLR,0.00,VWS V14.01,2013-06-04 01:58:00,
2013-06-03 22:03:00,63.7,52.5,29.81,West,265,0.0,1.5,67,0.00,,CLR,0.00,VWS V14.01,2013-06-04 02:03:00,
2013-06-03 22:08:00,63.5,52.8,29.81,NW,318,0.0,4.5,68,0.00,,CLR,0.00,VWS V14.01,2013-06-04 02:08:00,
2013-06-03 22:13:00,63.5,52.4,29.81,NW,318,0.0,4.5,67,0.00,,CLR,0.00,VWS V14.01,2013-06-04 02:13:00,
2013-06-03 22:18:00,63.3,52.6,29.81,NW,316,0.0,4.5,68,0.00,,CLR,0.00,VWS V14.01,2013-06-04 02:18:00,
2013-06-03 22:23:00,63.3,53.0,29.81,NW,316,1.5,4.5,69,0.00,,CLR,0.00,VWS V14.01,2013-06-04 02:23:00,
2013-06-03 22:28:00,63.2,52.5,29.81,NW,315,0.0,4.5,68,0.00,,CLR,0.00,VWS V14.01,2013-06-04 02:28:00,
2013-06-03 22:33:00,63.0,52.3,29.81,NW,314,6.0,6.0,68,0.00,,CLR,0.00,VWS V14.01,2013-06-04 02:33:00,
2013-06-03 22:38:00,62.9,52.6,29.81,NW,313,3.0,6.0,69,0.00,,CLR,0.00,VWS V14.01,2013-06-04 02:38:00,
2013-06-03 22:43:00,62.9,52.2,29.81,NW,312,4.5,6.0,68,0.00,,CLR,0.00,VWS V14.01,2013-06-04 02:43:00,
2013-06-03 22:48:00,62.7,52.0,29.81,NW,312,0.0,6.0,68,0.00,,CLR,0.00,VWS V14.01,2013-06-04 02:48:00,
2013-06-03 22:53:00,62.5,52.2,29.81,NW,311,1.5,6.0,69,0.00,,CLR,0.00,VWS V14.01,2013-06-04 02:53:00,
2013-06-03 22:58:00,62.4,51.3,29.81,NW,311,0.0,6.0,67,0.00,,CLR,0.00,VWS V14.01,2013-06-04 02:58:00,
2013-06-03 23:00:00,60.8,51.0,29.83,WNW,303,4.5,6.0,70,0.00,,CLR,0.00,VWS V14.01,2013-06-04 03:00:00,
2013-06-03 23:01:00,60.8,50.6,29.83,NW,304,0.0,6.0,69,0.00,,CLR,0.00,VWS V14.01,2013-06-04 03:01:00,
2013-06-03 23:02:00,60.8,50.6,29.83,NW,304,0.0,6.0,69,0.00,,CLR,0.00,VWS V14.01,2013-06-04 03:02:00,
2013-06-03 23:03:00,62.2,51.9,29.81,NW,311,0.0,4.5,69,0.00,,CLR,0.00,VWS V14.01,2013-06-04 03:03:00,
2013-06-03 23:04:00,60.8,51.0,29.83,WNW,303,0.0,6.0,70,0.00,,CLR,0.00,VWS V14.01,2013-06-04 03:04:00,
2013-06-03 23:05:00,60.8,51.3,29.83,NW,304,0.0,6.0,71,0.00,,CLR,0.00,VWS V14.01,2013-06-04 03:05:00,
2013-06-03 23:06:00,60.8,51.3,29.83,NW,304,0.0,6.0,71,0.00,,CLR,0.00,VWS V14.01,2013-06-04 03:06:00,
2013-06-03 23:07:00,60.6,50.4,29.83,WNW,303,0.0,6.0,69,0.00,,CLR,0.00,VWS V14.01,2013-06-04 03:07:00,
2013-06-03 23:08:00,62.1,51.8,29.81,NW,311,0.0,4.5,69,0.00,,CLR,0.00,VWS V14.01,2013-06-04 03:08:00,
2013-06-03 23:09:00,60.6,50.8,29.83,NW,304,0.0,6.0,70,0.00,,CLR,0.00,VWS V14.01,2013-06-04 03:09:00,
2013-06-03 23:10:00,60.6,50.8,29.83,NW,304,0.0,6.0,70,0.00,,CLR,0.00,VWS V14.01,2013-06-04 03:10:00,
2013-06-03 23:11:00,60.6,50.8,29.83,NW,304,0.0,6.0,70,0.00,,CLR,0.00,VWS V14.01,2013-06-04 03:11:00,
2013-06-03 23:12:00,60.5,50.3,29.83,WNW,303,0.0,6.0,69,0.00,,CLR,0.00,VWS V14.01,2013-06-04 03:12:00,
2013-06-03 23:13:00,61.9,52.0,29.81,NW,311,0.0,3.0,70,0.00,,CLR,0.00,VWS V14.01,2013-06-04 03:13:00,
2013-06-03 23:14:00,60.5,50.3,29.83,WNW,303,0.0,6.0,69,0.00,,CLR,0.00,VWS V14.01,2013-06-04 03:14:00,
2013-06-03 23:18:00,61.7,51.4,29.82,NW,311,0.0,3.0,69,0.00,,CLR,0.00,VWS V14.01,2013-06-04 03:18:00,
2013-06-03 23:23:00,61.6,51.0,29.82,West,281,0.0,3.0,68,0.00,,CLR,0.00,VWS V14.01,2013-06-04 03:23:00,
2013-06-03 23:28:00,61.4,51.2,29.82,West,281,0.0,3.0,69,0.00,,CLR,0.00,VWS V14.01,2013-06-04 03:28:00,
2013-06-03 23:33:00,61.4,51.2,29.82,NW,304,0.0,3.0,69,0.00,,CLR,0.00,VWS V14.01,2013-06-04 03:33:00,
2013-06-03 23:38:00,61.3,50.7,29.82,NW,304,0.0,3.0,68,0.00,,CLR,0.00,VWS V14.01,2013-06-04 03:38:00,
2013-06-03 23:43:00,61.1,51.2,29.82,WNW,303,0.0,3.0,70,0.00,,CLR,0.00,VWS V14.01,2013-06-04 03:43:00,
2013-06-03 23:48:00,61.0,51.2,29.83,WNW,303,0.0,3.0,70,0.00,,CLR,0.00,VWS V14.01,2013-06-04 03:48:00,
2013-06-03 23:53:00,61.0,50.8,29.83,WNW,303,0.0,3.0,69,0.00,,CLR,0.00,VWS V14.01,2013-06-04 03:53:00,
2013-06-03 23:58:00,60.8,51.3,29.83,WNW,303,0.0,4.5,71,0.00,,CLR,0.00,VWS V14.01,2013-06-04 03:58:00,